sensor_id;sensor_type;location;lat;lon;timestamp;P1;durP1;ratioP1;P2;durP2;ratioP2
5776;SDS011;2914;42.668;23.346;2022-07-29T00:01:41;14.70;;;10.33;;
5776;SDS011;2914;42.668;23.346;2022-07-29T00:04:10;11.33;;;10.23;;
5776;SDS011;2914;42.668;23.346;2022-07-29T00:06:40;11.20;;;10.20;;
5776;SDS011;2914;42.668;23.346;2022-07-29T00:09:09;11.27;;;10.17;;
5776;SDS011;2914;42.668;23.346;2022-07-29T00:11:38;12.03;;;10.53;;
5776;SDS011;2914;42.668;23.346;2022-07-29T00:14:07;13.17;;;10.40;;
5776;SDS011;2914;42.668;23.346;2022-07-29T00:16:36;10.90;;;9.77;;
5776;SDS011;2914;42.668;23.346;2022-07-29T00:19:06;9.53;;;8.73;;
5776;SDS011;2914;42.668;23.346;2022-07-29T00:21:35;10.20;;;9.40;;
5776;SDS011;2914;42.668;23.346;2022-07-29T00:24:04;10.93;;;9.93;;
5776;SDS011;2914;42.668;23.346;2022-07-29T00:26:34;9.40;;;8.60;;
5776;SDS011;2914;42.668;23.346;2022-07-29T00:29:17;9.73;;;8.90;;
5776;SDS011;2914;42.668;23.346;2022-07-29T00:31:47;11.73;;;9.57;;
5776;SDS011;2914;42.668;23.346;2022-07-29T00:34:16;10.13;;;9.33;;
5776;SDS011;2914;42.668;23.346;2022-07-29T00:37:03;9.27;;;8.57;;
5776;SDS011;2914;42.668;23.346;2022-07-29T00:39:32;10.47;;;9.53;;
5776;SDS011;2914;42.668;23.346;2022-07-29T00:42:02;9.33;;;8.63;;
5776;SDS011;2914;42.668;23.346;2022-07-29T00:44:36;10.83;;;9.33;;
5776;SDS011;2914;42.668;23.346;2022-07-29T00:47:06;13.00;;;9.30;;
5776;SDS011;2914;42.668;23.346;2022-07-29T00:49:35;9.90;;;9.00;;
5776;SDS011;2914;42.668;23.346;2022-07-29T00:52:06;10.63;;;8.70;;
5776;SDS011;2914;42.668;23.346;2022-07-29T00:54:37;9.80;;;8.80;;
5776;SDS011;2914;42.668;23.346;2022-07-29T00:57:07;8.90;;;8.13;;
5776;SDS011;2914;42.668;23.346;2022-07-29T00:59:36;10.70;;;9.50;;
5776;SDS011;2914;42.668;23.346;2022-07-29T01:02:05;10.30;;;9.40;;
5776;SDS011;2914;42.668;23.346;2022-07-29T01:04:34;9.93;;;8.90;;
5776;SDS011;2914;42.668;23.346;2022-07-29T01:07:04;9.80;;;8.77;;
5776;SDS011;2914;42.668;23.346;2022-07-29T01:09:34;11.47;;;8.80;;
5776;SDS011;2914;42.668;23.346;2022-07-29T01:12:05;10.67;;;9.77;;
5776;SDS011;2914;42.668;23.346;2022-07-29T01:14:39;15.97;;;10.60;;
5776;SDS011;2914;42.668;23.346;2022-07-29T01:17:10;15.77;;;11.60;;
5776;SDS011;2914;42.668;23.346;2022-07-29T01:19:47;16.20;;;10.50;;
5776;SDS011;2914;42.668;23.346;2022-07-29T01:22:22;13.43;;;10.50;;
5776;SDS011;2914;42.668;23.346;2022-07-29T01:25:17;18.20;;;12.00;;
5776;SDS011;2914;42.668;23.346;2022-07-29T01:27:55;14.87;;;12.57;;
5776;SDS011;2914;42.668;23.346;2022-07-29T01:30:41;13.63;;;12.27;;
5776;SDS011;2914;42.668;23.346;2022-07-29T01:33:13;15.80;;;13.20;;
5776;SDS011;2914;42.668;23.346;2022-07-29T01:36:04;12.80;;;11.60;;
5776;SDS011;2914;42.668;23.346;2022-07-29T01:38:35;14.60;;;13.10;;
5776;SDS011;2914;42.668;23.346;2022-07-29T01:41:08;15.00;;;13.20;;
5776;SDS011;2914;42.668;23.346;2022-07-29T01:43:41;15.57;;;13.70;;
5776;SDS011;2914;42.668;23.346;2022-07-29T01:46:20;15.70;;;13.13;;
5776;SDS011;2914;42.668;23.346;2022-07-29T01:48:52;16.30;;;13.87;;
5776;SDS011;2914;42.668;23.346;2022-07-29T01:51:25;15.67;;;13.97;;
5776;SDS011;2914;42.668;23.346;2022-07-29T01:53:59;15.03;;;13.63;;
5776;SDS011;2914;42.668;23.346;2022-07-29T01:56:30;13.37;;;12.17;;
5776;SDS011;2914;42.668;23.346;2022-07-29T01:59:02;13.97;;;12.57;;
5776;SDS011;2914;42.668;23.346;2022-07-29T02:01:35;14.40;;;12.90;;
5776;SDS011;2914;42.668;23.346;2022-07-29T02:04:06;14.27;;;12.77;;
5776;SDS011;2914;42.668;23.346;2022-07-29T02:06:38;15.57;;;13.33;;
5776;SDS011;2914;42.668;23.346;2022-07-29T02:09:10;14.23;;;12.73;;
5776;SDS011;2914;42.668;23.346;2022-07-29T02:11:43;14.67;;;13.10;;
5776;SDS011;2914;42.668;23.346;2022-07-29T02:14:14;19.13;;;14.03;;
5776;SDS011;2914;42.668;23.346;2022-07-29T02:16:46;20.70;;;14.60;;
5776;SDS011;2914;42.668;23.346;2022-07-29T02:19:18;15.63;;;13.53;;
5776;SDS011;2914;42.668;23.346;2022-07-29T02:21:49;20.80;;;15.63;;
5776;SDS011;2914;42.668;23.346;2022-07-29T02:24:20;16.23;;;14.70;;
5776;SDS011;2914;42.668;23.346;2022-07-29T02:26:52;16.33;;;14.37;;
5776;SDS011;2914;42.668;23.346;2022-07-29T02:29:30;19.00;;;14.67;;
5776;SDS011;2914;42.668;23.346;2022-07-29T02:32:02;16.70;;;12.80;;
5776;SDS011;2914;42.668;23.346;2022-07-29T02:34:40;14.90;;;13.17;;
5776;SDS011;2914;42.668;23.346;2022-07-29T02:37:11;16.47;;;13.20;;
5776;SDS011;2914;42.668;23.346;2022-07-29T02:39:41;16.60;;;12.37;;
5776;SDS011;2914;42.668;23.346;2022-07-29T02:42:12;14.00;;;12.70;;
5776;SDS011;2914;42.668;23.346;2022-07-29T02:44:43;19.20;;;11.80;;
5776;SDS011;2914;42.668;23.346;2022-07-29T02:47:13;15.63;;;13.93;;
5776;SDS011;2914;42.668;23.346;2022-07-29T02:49:48;14.97;;;12.00;;
5776;SDS011;2914;42.668;23.346;2022-07-29T02:52:22;11.87;;;10.30;;
5776;SDS011;2914;42.668;23.346;2022-07-29T02:54:55;10.53;;;9.67;;
5776;SDS011;2914;42.668;23.346;2022-07-29T02:57:30;12.70;;;10.47;;
5776;SDS011;2914;42.668;23.346;2022-07-29T03:00:04;10.97;;;9.87;;
5776;SDS011;2914;42.668;23.346;2022-07-29T03:02:36;11.47;;;10.37;;
5776;SDS011;2914;42.668;23.346;2022-07-29T03:05:09;11.90;;;10.70;;
5776;SDS011;2914;42.668;23.346;2022-07-29T03:07:40;11.03;;;10.00;;
5776;SDS011;2914;42.668;23.346;2022-07-29T03:10:12;12.10;;;9.17;;
5776;SDS011;2914;42.668;23.346;2022-07-29T03:12:42;14.50;;;8.57;;
5776;SDS011;2914;42.668;23.346;2022-07-29T03:15:12;13.80;;;8.70;;
5776;SDS011;2914;42.668;23.346;2022-07-29T03:17:42;9.77;;;8.97;;
5776;SDS011;2914;42.668;23.346;2022-07-29T03:20:13;9.73;;;8.80;;
5776;SDS011;2914;42.668;23.346;2022-07-29T03:22:43;9.57;;;8.83;;
5776;SDS011;2914;42.668;23.346;2022-07-29T03:25:13;11.83;;;9.70;;
5776;SDS011;2914;42.668;23.346;2022-07-29T03:30:26;14.63;;;11.10;;
5776;SDS011;2914;42.668;23.346;2022-07-29T03:32:56;12.43;;;11.13;;
5776;SDS011;2914;42.668;23.346;2022-07-29T03:35:26;16.03;;;12.70;;
5776;SDS011;2914;42.668;23.346;2022-07-29T03:37:57;17.27;;;13.50;;
5776;SDS011;2914;42.668;23.346;2022-07-29T03:40:27;15.67;;;11.87;;
5776;SDS011;2914;42.668;23.346;2022-07-29T03:42:59;15.53;;;12.07;;
5776;SDS011;2914;42.668;23.346;2022-07-29T03:45:29;11.07;;;9.97;;
5776;SDS011;2914;42.668;23.346;2022-07-29T03:48:08;12.40;;;11.10;;
5776;SDS011;2914;42.668;23.346;2022-07-29T03:50:40;11.33;;;10.27;;
5776;SDS011;2914;42.668;23.346;2022-07-29T03:53:10;11.40;;;10.17;;
5776;SDS011;2914;42.668;23.346;2022-07-29T03:55:41;15.73;;;9.80;;
5776;SDS011;2914;42.668;23.346;2022-07-29T03:58:12;11.50;;;9.97;;
5776;SDS011;2914;42.668;23.346;2022-07-29T04:00:42;13.80;;;11.10;;
5776;SDS011;2914;42.668;23.346;2022-07-29T04:03:12;14.03;;;11.63;;
5776;SDS011;2914;42.668;23.346;2022-07-29T04:05:41;13.57;;;10.30;;
5776;SDS011;2914;42.668;23.346;2022-07-29T04:08:11;16.07;;;12.07;;
5776;SDS011;2914;42.668;23.346;2022-07-29T04:10:40;16.30;;;12.30;;
5776;SDS011;2914;42.668;23.346;2022-07-29T04:13:09;18.80;;;12.03;;
5776;SDS011;2914;42.668;23.346;2022-07-29T04:15:38;19.63;;;13.23;;
5776;SDS011;2914;42.668;23.346;2022-07-29T04:18:07;13.60;;;12.20;;
5776;SDS011;2914;42.668;23.346;2022-07-29T04:20:36;13.77;;;12.30;;
5776;SDS011;2914;42.668;23.346;2022-07-29T04:23:05;17.00;;;13.50;;
5776;SDS011;2914;42.668;23.346;2022-07-29T04:25:37;14.70;;;13.17;;
5776;SDS011;2914;42.668;23.346;2022-07-29T04:28:06;14.03;;;12.63;;
5776;SDS011;2914;42.668;23.346;2022-07-29T04:30:45;22.33;;;12.23;;
5776;SDS011;2914;42.668;23.346;2022-07-29T04:33:14;14.93;;;12.73;;
5776;SDS011;2914;42.668;23.346;2022-07-29T04:35:44;19.00;;;12.13;;
5776;SDS011;2914;42.668;23.346;2022-07-29T04:38:13;17.60;;;11.50;;
5776;SDS011;2914;42.668;23.346;2022-07-29T04:40:42;12.30;;;10.80;;
5776;SDS011;2914;42.668;23.346;2022-07-29T04:43:12;16.20;;;11.00;;
5776;SDS011;2914;42.668;23.346;2022-07-29T04:45:42;11.73;;;10.60;;
5776;SDS011;2914;42.668;23.346;2022-07-29T04:48:12;13.10;;;11.67;;
5776;SDS011;2914;42.668;23.346;2022-07-29T04:50:41;17.93;;;10.30;;
5776;SDS011;2914;42.668;23.346;2022-07-29T04:53:11;14.37;;;9.40;;
5776;SDS011;2914;42.668;23.346;2022-07-29T04:55:42;11.07;;;9.93;;
5776;SDS011;2914;42.668;23.346;2022-07-29T04:58:12;12.07;;;11.03;;
5776;SDS011;2914;42.668;23.346;2022-07-29T05:00:42;11.37;;;10.37;;
5776;SDS011;2914;42.668;23.346;2022-07-29T05:03:11;16.07;;;11.87;;
5776;SDS011;2914;42.668;23.346;2022-07-29T05:05:40;12.47;;;9.93;;
5776;SDS011;2914;42.668;23.346;2022-07-29T05:08:10;13.90;;;11.10;;
5776;SDS011;2914;42.668;23.346;2022-07-29T05:10:39;10.80;;;9.70;;
5776;SDS011;2914;42.668;23.346;2022-07-29T05:13:08;11.70;;;10.60;;
5776;SDS011;2914;42.668;23.346;2022-07-29T05:15:37;15.60;;;9.10;;
5776;SDS011;2914;42.668;23.346;2022-07-29T05:18:07;12.13;;;9.93;;
5776;SDS011;2914;42.668;23.346;2022-07-29T05:20:36;10.23;;;9.40;;
5776;SDS011;2914;42.668;23.346;2022-07-29T05:23:05;12.73;;;9.00;;
5776;SDS011;2914;42.668;23.346;2022-07-29T05:25:49;10.30;;;9.40;;
5776;SDS011;2914;42.668;23.346;2022-07-29T05:28:18;12.80;;;8.90;;
5776;SDS011;2914;42.668;23.346;2022-07-29T05:30:47;9.80;;;8.80;;
5776;SDS011;2914;42.668;23.346;2022-07-29T05:33:16;10.40;;;9.43;;
5776;SDS011;2914;42.668;23.346;2022-07-29T05:35:45;16.03;;;9.10;;
5776;SDS011;2914;42.668;23.346;2022-07-29T05:38:14;11.43;;;8.73;;
5776;SDS011;2914;42.668;23.346;2022-07-29T05:40:44;17.73;;;8.37;;
5776;SDS011;2914;42.668;23.346;2022-07-29T05:43:13;11.17;;;9.23;;
5776;SDS011;2914;42.668;23.346;2022-07-29T05:45:50;11.93;;;8.67;;
5776;SDS011;2914;42.668;23.346;2022-07-29T05:48:20;10.60;;;9.67;;
5776;SDS011;2914;42.668;23.346;2022-07-29T05:50:49;13.10;;;8.53;;
5776;SDS011;2914;42.668;23.346;2022-07-29T05:53:18;14.70;;;9.70;;
5776;SDS011;2914;42.668;23.346;2022-07-29T05:55:48;13.10;;;9.77;;
5776;SDS011;2914;42.668;23.346;2022-07-29T05:58:18;17.10;;;8.83;;
5776;SDS011;2914;42.668;23.346;2022-07-29T06:00:47;9.47;;;8.40;;
5776;SDS011;2914;42.668;23.346;2022-07-29T06:03:25;17.00;;;7.63;;
5776;SDS011;2914;42.668;23.346;2022-07-29T06:05:55;8.50;;;7.90;;
5776;SDS011;2914;42.668;23.346;2022-07-29T06:08:25;8.63;;;7.77;;
5776;SDS011;2914;42.668;23.346;2022-07-29T06:10:54;9.90;;;7.43;;
5776;SDS011;2914;42.668;23.346;2022-07-29T06:13:23;9.53;;;7.33;;
5776;SDS011;2914;42.668;23.346;2022-07-29T06:15:52;8.67;;;7.87;;
5776;SDS011;2914;42.668;23.346;2022-07-29T06:18:21;10.83;;;8.03;;
5776;SDS011;2914;42.668;23.346;2022-07-29T06:20:50;18.70;;;8.43;;
5776;SDS011;2914;42.668;23.346;2022-07-29T06:23:20;16.40;;;7.90;;
5776;SDS011;2914;42.668;23.346;2022-07-29T06:25:49;8.37;;;7.67;;
5776;SDS011;2914;42.668;23.346;2022-07-29T06:28:18;8.10;;;7.40;;
5776;SDS011;2914;42.668;23.346;2022-07-29T06:30:48;7.93;;;7.33;;
5776;SDS011;2914;42.668;23.346;2022-07-29T06:33:17;8.10;;;7.40;;
5776;SDS011;2914;42.668;23.346;2022-07-29T06:35:47;8.37;;;7.77;;
5776;SDS011;2914;42.668;23.346;2022-07-29T06:38:16;8.37;;;7.50;;
5776;SDS011;2914;42.668;23.346;2022-07-29T06:40:45;8.30;;;7.50;;
5776;SDS011;2914;42.668;23.346;2022-07-29T06:43:34;15.70;;;8.23;;
5776;SDS011;2914;42.668;23.346;2022-07-29T06:46:05;11.53;;;9.13;;
5776;SDS011;2914;42.668;23.346;2022-07-29T06:48:35;9.33;;;8.00;;
5776;SDS011;2914;42.668;23.346;2022-07-29T06:51:05;8.13;;;7.43;;
5776;SDS011;2914;42.668;23.346;2022-07-29T06:53:34;10.27;;;8.73;;
5776;SDS011;2914;42.668;23.346;2022-07-29T06:56:04;8.67;;;7.80;;
5776;SDS011;2914;42.668;23.346;2022-07-29T06:58:35;8.80;;;7.13;;
5776;SDS011;2914;42.668;23.346;2022-07-29T07:01:05;8.20;;;7.03;;
5776;SDS011;2914;42.668;23.346;2022-07-29T07:03:34;14.23;;;7.30;;
5776;SDS011;2914;42.668;23.346;2022-07-29T07:06:03;7.13;;;6.43;;
5776;SDS011;2914;42.668;23.346;2022-07-29T07:08:33;8.40;;;7.67;;
5776;SDS011;2914;42.668;23.346;2022-07-29T07:11:02;7.07;;;6.43;;
5776;SDS011;2914;42.668;23.346;2022-07-29T07:13:32;9.97;;;7.10;;
5776;SDS011;2914;42.668;23.346;2022-07-29T07:16:01;7.33;;;6.47;;
5776;SDS011;2914;42.668;23.346;2022-07-29T07:18:31;8.10;;;7.43;;
5776;SDS011;2914;42.668;23.346;2022-07-29T07:21:00;8.57;;;6.80;;
5776;SDS011;2914;42.668;23.346;2022-07-29T07:23:31;6.40;;;6.00;;
5776;SDS011;2914;42.668;23.346;2022-07-29T07:26:00;12.27;;;7.17;;
5776;SDS011;2914;42.668;23.346;2022-07-29T07:28:29;7.70;;;6.50;;
5776;SDS011;2914;42.668;23.346;2022-07-29T07:30:58;5.80;;;5.40;;
5776;SDS011;2914;42.668;23.346;2022-07-29T07:33:27;9.10;;;5.93;;
5776;SDS011;2914;42.668;23.346;2022-07-29T07:35:57;7.80;;;5.37;;
5776;SDS011;2914;42.668;23.346;2022-07-29T07:38:26;8.90;;;6.57;;
5776;SDS011;2914;42.668;23.346;2022-07-29T07:40:55;11.13;;;6.20;;
5776;SDS011;2914;42.668;23.346;2022-07-29T07:43:24;10.73;;;6.00;;
5776;SDS011;2914;42.668;23.346;2022-07-29T07:45:53;9.13;;;5.80;;
5776;SDS011;2914;42.668;23.346;2022-07-29T07:48:22;6.87;;;5.23;;
5776;SDS011;2914;42.668;23.346;2022-07-29T07:50:51;6.17;;;5.57;;
5776;SDS011;2914;42.668;23.346;2022-07-29T07:53:20;6.40;;;5.47;;
5776;SDS011;2914;42.668;23.346;2022-07-29T07:55:49;6.50;;;6.00;;
5776;SDS011;2914;42.668;23.346;2022-07-29T07:58:19;5.80;;;5.30;;
5776;SDS011;2914;42.668;23.346;2022-07-29T08:00:48;6.50;;;5.43;;
5776;SDS011;2914;42.668;23.346;2022-07-29T08:03:18;5.90;;;5.40;;
5776;SDS011;2914;42.668;23.346;2022-07-29T08:05:47;14.13;;;5.40;;
5776;SDS011;2914;42.668;23.346;2022-07-29T08:08:17;6.20;;;5.60;;
5776;SDS011;2914;42.668;23.346;2022-07-29T08:10:46;6.03;;;5.50;;
5776;SDS011;2914;42.668;23.346;2022-07-29T08:13:22;6.40;;;4.90;;
5776;SDS011;2914;42.668;23.346;2022-07-29T08:15:54;5.47;;;5.07;;
5776;SDS011;2914;42.668;23.346;2022-07-29T08:18:28;6.33;;;5.20;;
5776;SDS011;2914;42.668;23.346;2022-07-29T08:20:58;5.17;;;4.80;;
5776;SDS011;2914;42.668;23.346;2022-07-29T08:23:27;8.63;;;5.00;;
5776;SDS011;2914;42.668;23.346;2022-07-29T08:25:58;5.73;;;4.87;;
5776;SDS011;2914;42.668;23.346;2022-07-29T08:28:28;8.40;;;5.20;;
5776;SDS011;2914;42.668;23.346;2022-07-29T08:30:57;6.87;;;4.80;;
5776;SDS011;2914;42.668;23.346;2022-07-29T08:33:26;4.97;;;4.40;;
5776;SDS011;2914;42.668;23.346;2022-07-29T08:35:55;4.37;;;4.17;;
5776;SDS011;2914;42.668;23.346;2022-07-29T08:38:24;5.00;;;4.57;;
5776;SDS011;2914;42.668;23.346;2022-07-29T08:40:54;5.27;;;4.97;;
5776;SDS011;2914;42.668;23.346;2022-07-29T08:43:23;4.80;;;4.03;;
5776;SDS011;2914;42.668;23.346;2022-07-29T08:45:53;4.70;;;4.40;;
5776;SDS011;2914;42.668;23.346;2022-07-29T08:48:22;6.57;;;4.67;;
5776;SDS011;2914;42.668;23.346;2022-07-29T08:50:54;4.17;;;3.93;;
5776;SDS011;2914;42.668;23.346;2022-07-29T08:53:25;4.57;;;4.30;;
5776;SDS011;2914;42.668;23.346;2022-07-29T08:56:04;6.77;;;4.20;;
5776;SDS011;2914;42.668;23.346;2022-07-29T08:58:33;4.53;;;4.00;;
5776;SDS011;2914;42.668;23.346;2022-07-29T09:01:02;8.17;;;4.23;;
5776;SDS011;2914;42.668;23.346;2022-07-29T09:03:32;7.43;;;4.77;;
5776;SDS011;2914;42.668;23.346;2022-07-29T09:06:03;5.10;;;4.20;;
5776;SDS011;2914;42.668;23.346;2022-07-29T09:08:33;4.67;;;4.37;;
5776;SDS011;2914;42.668;23.346;2022-07-29T09:11:02;4.83;;;4.13;;
5776;SDS011;2914;42.668;23.346;2022-07-29T09:13:33;5.43;;;4.40;;
5776;SDS011;2914;42.668;23.346;2022-07-29T09:16:03;4.47;;;4.23;;
5776;SDS011;2914;42.668;23.346;2022-07-29T09:18:36;5.03;;;4.57;;
5776;SDS011;2914;42.668;23.346;2022-07-29T09:21:06;4.70;;;4.30;;
5776;SDS011;2914;42.668;23.346;2022-07-29T09:24:02;4.53;;;4.30;;
5776;SDS011;2914;42.668;23.346;2022-07-29T09:26:34;6.90;;;4.60;;
5776;SDS011;2914;42.668;23.346;2022-07-29T09:29:08;9.77;;;5.43;;
5776;SDS011;2914;42.668;23.346;2022-07-29T09:31:38;5.13;;;4.80;;
5776;SDS011;2914;42.668;23.346;2022-07-29T09:34:28;5.00;;;4.70;;
5776;SDS011;2914;42.668;23.346;2022-07-29T09:36:58;5.23;;;4.80;;
5776;SDS011;2914;42.668;23.346;2022-07-29T09:39:28;6.30;;;5.03;;
5776;SDS011;2914;42.668;23.346;2022-07-29T09:41:58;4.70;;;4.40;;
5776;SDS011;2914;42.668;23.346;2022-07-29T09:44:41;5.70;;;5.00;;
5776;SDS011;2914;42.668;23.346;2022-07-29T09:47:11;5.53;;;5.13;;
5776;SDS011;2914;42.668;23.346;2022-07-29T09:49:51;5.50;;;5.00;;
5776;SDS011;2914;42.668;23.346;2022-07-29T09:52:23;9.43;;;5.57;;
5776;SDS011;2914;42.668;23.346;2022-07-29T09:54:52;6.73;;;6.03;;
5776;SDS011;2914;42.668;23.346;2022-07-29T09:57:24;5.77;;;5.17;;
5776;SDS011;2914;42.668;23.346;2022-07-29T09:59:58;5.27;;;4.90;;
5776;SDS011;2914;42.668;23.346;2022-07-29T10:02:32;7.73;;;5.30;;
5776;SDS011;2914;42.668;23.346;2022-07-29T10:05:04;7.90;;;5.33;;
5776;SDS011;2914;42.668;23.346;2022-07-29T10:07:43;6.70;;;5.40;;
5776;SDS011;2914;42.668;23.346;2022-07-29T10:10:19;6.57;;;5.70;;
5776;SDS011;2914;42.668;23.346;2022-07-29T10:12:49;5.10;;;4.90;;
5776;SDS011;2914;42.668;23.346;2022-07-29T10:15:22;4.53;;;4.33;;
5776;SDS011;2914;42.668;23.346;2022-07-29T10:17:52;4.97;;;4.73;;
5776;SDS011;2914;42.668;23.346;2022-07-29T10:20:23;5.10;;;4.60;;
5776;SDS011;2914;42.668;23.346;2022-07-29T10:22:53;5.50;;;5.00;;
5776;SDS011;2914;42.668;23.346;2022-07-29T10:25:23;7.23;;;4.87;;
5776;SDS011;2914;42.668;23.346;2022-07-29T10:28:01;6.93;;;4.80;;
5776;SDS011;2914;42.668;23.346;2022-07-29T10:30:32;4.93;;;4.73;;
5776;SDS011;2914;42.668;23.346;2022-07-29T10:36:19;4.03;;;3.83;;
5776;SDS011;2914;42.668;23.346;2022-07-29T10:38:53;4.10;;;3.90;;
5776;SDS011;2914;42.668;23.346;2022-07-29T10:41:39;4.50;;;4.20;;
5776;SDS011;2914;42.668;23.346;2022-07-29T10:44:14;5.30;;;4.90;;
5776;SDS011;2914;42.668;23.346;2022-07-29T10:46:44;4.33;;;3.80;;
5776;SDS011;2914;42.668;23.346;2022-07-29T10:49:15;5.53;;;4.50;;
5776;SDS011;2914;42.668;23.346;2022-07-29T10:51:58;5.27;;;4.57;;
5776;SDS011;2914;42.668;23.346;2022-07-29T10:54:39;5.03;;;4.63;;
5776;SDS011;2914;42.668;23.346;2022-07-29T10:57:24;4.93;;;4.57;;
5776;SDS011;2914;42.668;23.346;2022-07-29T11:03:04;5.57;;;5.17;;
5776;SDS011;2914;42.668;23.346;2022-07-29T11:05:50;4.20;;;4.00;;
5776;SDS011;2914;42.668;23.346;2022-07-29T11:08:35;4.50;;;4.20;;
5776;SDS011;2914;42.668;23.346;2022-07-29T11:17:24;4.57;;;4.40;;
5776;SDS011;2914;42.668;23.346;2022-07-29T11:19:59;4.60;;;4.40;;
5776;SDS011;2914;42.668;23.346;2022-07-29T11:22:48;4.93;;;4.73;;
5776;SDS011;2914;42.668;23.346;2022-07-29T11:25:18;5.87;;;5.33;;
5776;SDS011;2914;42.668;23.346;2022-07-29T11:28:09;4.90;;;4.70;;
5776;SDS011;2914;42.668;23.346;2022-07-29T11:30:50;4.90;;;4.70;;
5776;SDS011;2914;42.668;23.346;2022-07-29T11:33:28;9.70;;;4.50;;
5776;SDS011;2914;42.668;23.346;2022-07-29T11:36:08;5.80;;;5.13;;
5776;SDS011;2914;42.668;23.346;2022-07-29T11:38:39;4.97;;;4.67;;
5776;SDS011;2914;42.668;23.346;2022-07-29T11:41:19;5.97;;;5.37;;
5776;SDS011;2914;42.668;23.346;2022-07-29T11:43:50;5.30;;;4.90;;
5776;SDS011;2914;42.668;23.346;2022-07-29T11:46:47;5.40;;;5.10;;
5776;SDS011;2914;42.668;23.346;2022-07-29T11:49:20;15.20;;;6.00;;
5776;SDS011;2914;42.668;23.346;2022-07-29T11:51:52;6.17;;;5.77;;
5776;SDS011;2914;42.668;23.346;2022-07-29T11:54:23;5.90;;;5.50;;
5776;SDS011;2914;42.668;23.346;2022-07-29T11:57:01;6.13;;;5.63;;
5776;SDS011;2914;42.668;23.346;2022-07-29T11:59:32;5.83;;;5.37;;
5776;SDS011;2914;42.668;23.346;2022-07-29T12:02:20;6.03;;;5.63;;
5776;SDS011;2914;42.668;23.346;2022-07-29T12:04:50;5.33;;;5.03;;
5776;SDS011;2914;42.668;23.346;2022-07-29T12:07:26;6.10;;;5.67;;
5776;SDS011;2914;42.668;23.346;2022-07-29T12:09:56;5.67;;;5.27;;
5776;SDS011;2914;42.668;23.346;2022-07-29T12:12:25;5.90;;;5.50;;
5776;SDS011;2914;42.668;23.346;2022-07-29T12:14:54;6.33;;;5.30;;
5776;SDS011;2914;42.668;23.346;2022-07-29T12:17:27;7.83;;;5.63;;
5776;SDS011;2914;42.668;23.346;2022-07-29T12:19:58;6.00;;;5.67;;
5776;SDS011;2914;42.668;23.346;2022-07-29T12:22:29;6.50;;;5.97;;
5776;SDS011;2914;42.668;23.346;2022-07-29T12:25:01;7.20;;;6.70;;
5776;SDS011;2914;42.668;23.346;2022-07-29T12:27:33;6.87;;;6.20;;
5776;SDS011;2914;42.668;23.346;2022-07-29T12:30:04;6.67;;;6.17;;
5776;SDS011;2914;42.668;23.346;2022-07-29T12:32:36;6.87;;;5.80;;
5776;SDS011;2914;42.668;23.346;2022-07-29T12:35:07;7.67;;;7.00;;
5776;SDS011;2914;42.668;23.346;2022-07-29T12:37:39;6.43;;;6.03;;
5776;SDS011;2914;42.668;23.346;2022-07-29T12:40:11;6.90;;;6.20;;
5776;SDS011;2914;42.668;23.346;2022-07-29T12:42:42;7.33;;;6.73;;
5776;SDS011;2914;42.668;23.346;2022-07-29T12:45:32;7.20;;;6.80;;
5776;SDS011;2914;42.668;23.346;2022-07-29T12:48:01;6.97;;;6.47;;
5776;SDS011;2914;42.668;23.346;2022-07-29T12:50:30;7.23;;;6.60;;
5776;SDS011;2914;42.668;23.346;2022-07-29T12:53:09;7.10;;;6.50;;
5776;SDS011;2914;42.668;23.346;2022-07-29T12:55:43;8.80;;;6.60;;
5776;SDS011;2914;42.668;23.346;2022-07-29T12:58:24;12.87;;;11.43;;
5776;SDS011;2914;42.668;23.346;2022-07-29T13:01:03;8.30;;;7.10;;
5776;SDS011;2914;42.668;23.346;2022-07-29T13:03:42;8.50;;;5.80;;
5776;SDS011;2914;42.668;23.346;2022-07-29T13:09:21;6.57;;;6.17;;
5776;SDS011;2914;42.668;23.346;2022-07-29T13:11:59;8.30;;;6.53;;
5776;SDS011;2914;42.668;23.346;2022-07-29T13:14:32;8.10;;;7.50;;
5776;SDS011;2914;42.668;23.346;2022-07-29T13:17:29;7.40;;;6.73;;
5776;SDS011;2914;42.668;23.346;2022-07-29T13:20:05;8.63;;;7.23;;
5776;SDS011;2914;42.668;23.346;2022-07-29T13:22:38;8.47;;;7.87;;
5776;SDS011;2914;42.668;23.346;2022-07-29T13:25:22;9.20;;;6.60;;
5776;SDS011;2914;42.668;23.346;2022-07-29T13:30:28;7.40;;;6.90;;
5776;SDS011;2914;42.668;23.346;2022-07-29T13:32:57;6.80;;;6.30;;
5776;SDS011;2914;42.668;23.346;2022-07-29T13:35:27;9.00;;;6.80;;
5776;SDS011;2914;42.668;23.346;2022-07-29T13:37:56;10.83;;;6.67;;
5776;SDS011;2914;42.668;23.346;2022-07-29T13:40:25;6.80;;;6.30;;
5776;SDS011;2914;42.668;23.346;2022-07-29T13:42:55;8.03;;;7.43;;
5776;SDS011;2914;42.668;23.346;2022-07-29T13:45:24;7.10;;;6.40;;
5776;SDS011;2914;42.668;23.346;2022-07-29T13:47:53;7.60;;;6.80;;
5776;SDS011;2914;42.668;23.346;2022-07-29T13:50:22;7.47;;;6.67;;
5776;SDS011;2914;42.668;23.346;2022-07-29T13:52:52;6.47;;;5.70;;
5776;SDS011;2914;42.668;23.346;2022-07-29T13:55:21;7.20;;;6.70;;
5776;SDS011;2914;42.668;23.346;2022-07-29T13:57:50;6.80;;;6.40;;
5776;SDS011;2914;42.668;23.346;2022-07-29T14:00:19;7.10;;;6.60;;
5776;SDS011;2914;42.668;23.346;2022-07-29T14:02:49;9.43;;;6.70;;
5776;SDS011;2914;42.668;23.346;2022-07-29T14:05:19;7.30;;;6.77;;
5776;SDS011;2914;42.668;23.346;2022-07-29T14:07:48;12.30;;;7.30;;
5776;SDS011;2914;42.668;23.346;2022-07-29T14:10:17;8.17;;;6.90;;
5776;SDS011;2914;42.668;23.346;2022-07-29T14:12:46;16.43;;;6.87;;
5776;SDS011;2914;42.668;23.346;2022-07-29T14:15:15;6.80;;;6.37;;
5776;SDS011;2914;42.668;23.346;2022-07-29T14:17:45;6.80;;;6.40;;
5776;SDS011;2914;42.668;23.346;2022-07-29T14:20:14;7.07;;;6.27;;
5776;SDS011;2914;42.668;23.346;2022-07-29T14:22:44;6.67;;;6.27;;
5776;SDS011;2914;42.668;23.346;2022-07-29T14:25:15;8.27;;;6.97;;
5776;SDS011;2914;42.668;23.346;2022-07-29T14:27:44;6.30;;;5.90;;
5776;SDS011;2914;42.668;23.346;2022-07-29T14:30:22;6.20;;;5.70;;
5776;SDS011;2914;42.668;23.346;2022-07-29T14:32:51;6.80;;;6.30;;
5776;SDS011;2914;42.668;23.346;2022-07-29T14:35:20;6.70;;;6.10;;
5776;SDS011;2914;42.668;23.346;2022-07-29T14:37:49;6.50;;;5.90;;
5776;SDS011;2914;42.668;23.346;2022-07-29T14:40:18;6.17;;;5.60;;
5776;SDS011;2914;42.668;23.346;2022-07-29T14:42:48;10.93;;;5.93;;
5776;SDS011;2914;42.668;23.346;2022-07-29T14:45:17;6.23;;;5.77;;
5776;SDS011;2914;42.668;23.346;2022-07-29T14:47:46;7.37;;;6.73;;
5776;SDS011;2914;42.668;23.346;2022-07-29T14:50:16;9.03;;;6.47;;
5776;SDS011;2914;42.668;23.346;2022-07-29T14:52:45;7.10;;;6.60;;
5776;SDS011;2914;42.668;23.346;2022-07-29T14:55:14;6.73;;;5.97;;
5776;SDS011;2914;42.668;23.346;2022-07-29T14:57:52;7.20;;;5.73;;
5776;SDS011;2914;42.668;23.346;2022-07-29T15:00:21;6.73;;;6.23;;
5776;SDS011;2914;42.668;23.346;2022-07-29T15:02:50;11.30;;;6.93;;
5776;SDS011;2914;42.668;23.346;2022-07-29T15:05:20;7.60;;;6.20;;
5776;SDS011;2914;42.668;23.346;2022-07-29T15:07:49;7.73;;;6.67;;
5776;SDS011;2914;42.668;23.346;2022-07-29T15:10:18;6.43;;;6.03;;
5776;SDS011;2914;42.668;23.346;2022-07-29T15:12:47;7.40;;;6.77;;
5776;SDS011;2914;42.668;23.346;2022-07-29T15:15:17;6.30;;;5.90;;
5776;SDS011;2914;42.668;23.346;2022-07-29T15:17:46;6.60;;;6.20;;
5776;SDS011;2914;42.668;23.346;2022-07-29T15:20:15;7.50;;;6.67;;
5776;SDS011;2914;42.668;23.346;2022-07-29T15:22:45;7.97;;;6.83;;
5776;SDS011;2914;42.668;23.346;2022-07-29T15:25:14;13.90;;;8.13;;
5776;SDS011;2914;42.668;23.346;2022-07-29T15:27:43;7.97;;;7.27;;
5776;SDS011;2914;42.668;23.346;2022-07-29T15:30:13;7.50;;;7.00;;
5776;SDS011;2914;42.668;23.346;2022-07-29T15:32:43;11.50;;;9.87;;
5776;SDS011;2914;42.668;23.346;2022-07-29T15:35:12;7.50;;;7.00;;
5776;SDS011;2914;42.668;23.346;2022-07-29T15:37:41;7.90;;;6.60;;
5776;SDS011;2914;42.668;23.346;2022-07-29T15:40:11;7.27;;;6.67;;
5776;SDS011;2914;42.668;23.346;2022-07-29T15:42:40;6.50;;;5.90;;